Time;durP1;ratioP1;P1;durP2;ratioP2;P2;SDS_P1;SDS_P2;PMS_P1;PMS_P2;Temp;Humidity;BMP_temperature;BMP_pressure;BME280_temperature;BME280_humidity;BME280_pressure;Samples;Min_cycle;Max_cycle;Signal;HPM_P1;HPM_P2
2023/03/11 00:01:45;;;;;;;834.43;459.93;;;2.60;99.90;;;;;;5075664;28;20305;-51
2023/03/11 00:04:13;;;;;;;901.63;422.90;;;2.60;99.90;;;;;;5090356;28;20354;-50
2023/03/11 00:06:43;;;;;;;434.30;341.00;;;2.70;99.90;;;;;;5089948;28;20633;-50
2023/03/11 00:09:11;;;;;;;224.80;178.47;;;2.70;99.90;;;;;;5090038;28;20776;-50
2023/03/11 00:11:39;;;;;;;971.67;487.10;;;2.70;99.90;;;;;;5089556;28;20328;-50
2023/03/11 00:14:07;;;;;;;1826.03;569.20;;;2.70;99.90;;;;;;5089486;28;20229;-50
2023/03/11 00:16:35;;;;;;;1999.90;745.67;;;2.70;99.90;;;;;;5089039;28;20579;-50
2023/03/11 00:19:03;;;;;;;781.50;517.93;;;2.70;99.90;;;;;;5089620;28;20624;-50
2023/03/11 00:21:31;;;;;;;426.90;322.57;;;2.60;99.90;;;;;;5089126;28;20601;-50
2023/03/11 00:24:02;;;;;;;539.23;372.90;;;2.70;99.90;;;;;;5089973;28;20208;-50
2023/03/11 00:26:30;;;;;;;1999.90;733.50;;;2.70;99.90;;;;;;5089737;28;20222;-50
2023/03/11 00:28:58;;;;;;;800.73;371.70;;;2.70;99.90;;;;;;5089695;28;20321;-50
2023/03/11 00:31:26;;;;;;;375.53;249.10;;;2.70;99.90;;;;;;5089178;28;20781;-50
2023/03/11 00:33:56;;;;;;;1151.27;474.67;;;2.70;99.90;;;;;;5089740;28;20267;-50
2023/03/11 00:36:27;;;;;;;824.13;406.00;;;2.80;99.90;;;;;;5089297;28;20264;-50
2023/03/11 00:38:55;;;;;;;578.03;373.33;;;2.70;99.90;;;;;;5089289;28;20200;-50
2023/03/11 00:41:25;;;;;;;385.87;349.43;;;2.70;99.90;;;;;;5088558;28;20271;-50
2023/03/11 00:43:53;;;;;;;1281.97;480.30;;;2.70;99.90;;;;;;5089107;28;20986;-50
2023/03/11 00:46:21;;;;;;;824.13;454.27;;;2.70;99.90;;;;;;5088780;28;20226;-50
2023/03/11 00:48:50;;;;;;;1376.13;552.80;;;2.70;99.90;;;;;;5087278;28;20325;-50
2023/03/11 00:51:19;;;;;;;1194.13;639.27;;;2.60;99.90;;;;;;5088632;28;20204;-50
2023/03/11 00:53:47;;;;;;;518.60;431.10;;;2.70;99.90;;;;;;5088927;28;20296;-50
2023/03/11 00:56:16;;;;;;;396.30;355.43;;;2.60;99.90;;;;;;5088958;28;20294;-50
2023/03/11 00:58:45;;;;;;;670.60;442.27;;;2.70;99.90;;;;;;5088192;28;20337;-49
2023/03/11 01:01:16;;;;;;;743.77;533.93;;;2.70;99.90;;;;;;5081311;28;20861;-50
2023/03/11 01:03:44;;;;;;;182.83;166.97;;;2.70;99.90;;;;;;5088889;28;20225;-49
2023/03/11 01:06:12;;;;;;;1014.57;589.70;;;2.70;99.90;;;;;;5088624;28;20300;-50
2023/03/11 01:08:40;;;;;;;1305.43;547.60;;;2.70;99.90;;;;;;5088014;28;20221;-50
2023/03/11 01:11:09;;;;;;;330.23;296.73;;;2.60;99.90;;;;;;5080297;28;20218;-50
2023/03/11 01:13:37;;;;;;;330.33;279.20;;;2.70;99.90;;;;;;5089003;28;20239;-50
2023/03/11 01:16:08;;;;;;;1156.17;528.70;;;2.80;99.90;;;;;;5088786;28;20204;-50
2023/03/11 01:18:36;;;;;;;1999.90;656.33;;;2.70;99.90;;;;;;5088541;28;20202;-50
2023/03/11 01:21:04;;;;;;;1999.90;803.93;;;2.80;99.90;;;;;;5088775;28;20233;-51
2023/03/11 01:23:33;;;;;;;1974.07;766.03;;;2.70;99.90;;;;;;5088617;28;20256;-50
2023/03/11 01:26:01;;;;;;;1999.90;675.70;;;2.60;99.90;;;;;;5089063;28;20288;-50
2023/03/11 01:28:29;;;;;;;610.80;343.40;;;2.50;99.90;;;;;;5088418;28;20815;-50
2023/03/11 01:30:57;;;;;;;1481.43;627.27;;;2.40;99.90;;;;;;5088602;28;20630;-50
2023/03/11 01:33:27;;;;;;;1127.10;540.50;;;2.50;99.90;;;;;;5088237;28;20650;-50
2023/03/11 01:35:55;;;;;;;289.63;264.40;;;2.50;99.90;;;;;;5088739;28;20258;-50
2023/03/11 01:38:24;;;;;;;1999.90;747.50;;;2.50;99.90;;;;;;5088630;28;20340;-50
2023/03/11 01:40:52;;;;;;;1717.33;588.60;;;2.50;99.90;;;;;;5088181;28;20324;-50
2023/03/11 01:43:40;;;;;;;1999.90;736.27;;;2.50;99.90;;;;;;5087977;28;20285;-50
2023/03/11 01:46:12;;;;;;;1751.00;743.63;;;2.50;99.90;;;;;;5088697;28;20209;-51
2023/03/11 01:48:45;;;;;;;1999.90;872.77;;;2.50;99.90;;;;;;5088380;28;20210;-50
2023/03/11 01:51:15;;;;;;;1857.03;751.93;;;2.40;99.90;;;;;;5088161;28;20207;-50
2023/03/11 01:53:43;;;;;;;1018.40;623.23;;;2.30;99.90;;;;;;5088311;28;20695;-50
2023/03/11 01:56:11;;;;;;;1893.60;753.63;;;2.40;99.90;;;;;;5087771;28;20679;-50
2023/03/11 01:58:44;;;;;;;1999.90;856.60;;;2.30;99.90;;;;;;5084730;28;20300;-51
2023/03/11 02:01:13;;;;;;;1077.57;629.60;;;2.30;99.90;;;;;;5085714;28;20721;-50
2023/03/11 02:03:43;;;;;;;845.17;517.50;;;2.30;99.90;;;;;;5087384;28;20216;-50
2023/03/11 02:06:14;;;;;;;1999.90;875.57;;;2.20;99.90;;;;;;5088896;28;20295;-50
2023/03/11 02:08:43;;;;;;;1999.90;832.47;;;2.30;99.90;;;;;;5088013;28;20598;-51
2023/03/11 02:11:16;;;;;;;1833.57;790.27;;;2.20;99.90;;;;;;5087538;28;20710;-50
2023/03/11 02:13:45;;;;;;;1050.03;770.20;;;2.30;99.90;;;;;;5088227;28;20661;-50
2023/03/11 02:16:13;;;;;;;1999.90;999.90;;;2.20;99.90;;;;;;5088016;28;20231;-50
2023/03/11 02:18:44;;;;;;;786.97;619.47;;;2.20;99.90;;;;;;5088109;28;20205;-50
2023/03/11 02:21:22;;;;;;;896.87;713.37;;;2.20;99.90;;;;;;5087391;28;20867;-50
2023/03/11 02:23:57;;;;;;;1999.90;999.00;;;2.20;99.90;;;;;;5088242;28;20200;-51
2023/03/11 02:26:33;;;;;;;1999.90;999.90;;;2.20;99.90;;;;;;5087841;28;20304;-50
2023/03/11 02:29:06;;;;;;;1999.90;916.77;;;2.00;99.90;;;;;;5087601;28;20784;-49
2023/03/11 02:31:38;;;;;;;812.77;739.60;;;2.00;99.90;;;;;;5087691;28;20661;-50
2023/03/11 02:34:16;;;;;;;850.37;699.07;;;2.00;99.90;;;;;;5087690;28;20191;-50
2023/03/11 02:36:44;;;;;;;712.23;617.80;;;2.00;99.90;;;;;;5087736;28;20235;-50
2023/03/11 02:39:12;;;;;;;1999.90;999.90;;;2.10;99.90;;;;;;5089037;28;20204;-49
2023/03/11 02:41:44;;;;;;;513.63;461.33;;;2.00;99.90;;;;;;5091479;28;20661;-50
2023/03/11 02:44:15;;;;;;;1999.90;999.90;;;2.10;99.90;;;;;;5092295;28;20323;-49
2023/03/11 02:46:44;;;;;;;1999.90;999.90;;;2.10;99.90;;;;;;5091493;28;20587;-50
2023/03/11 02:49:13;;;;;;;860.40;763.00;;;2.00;99.90;;;;;;5091459;28;20231;-50
2023/03/11 02:51:41;;;;;;;1327.90;768.63;;;2.00;99.90;;;;;;5090661;28;20764;-51
2023/03/11 02:54:09;;;;;;;1999.90;999.90;;;2.00;99.90;;;;;;5091744;28;20207;-50
2023/03/11 02:56:37;;;;;;;854.33;603.03;;;2.00;99.90;;;;;;5091561;28;20265;-50
2023/03/11 02:59:05;;;;;;;1866.17;937.07;;;2.10;99.90;;;;;;5090548;28;20573;-50
2023/03/11 03:01:37;;;;;;;1999.90;963.17;;;2.10;99.90;;;;;;5091038;28;20265;-50
2023/03/11 03:04:05;;;;;;;1778.77;964.73;;;2.00;99.90;;;;;;5091349;28;20328;-50
2023/03/11 03:06:33;;;;;;;1999.90;942.67;;;2.00;99.90;;;;;;5091154;28;20205;-50
2023/03/11 03:09:01;;;;;;;1999.90;961.17;;;2.00;99.90;;;;;;5090889;28;20309;-50
2023/03/11 03:11:29;;;;;;;1999.90;999.90;;;2.00;99.90;;;;;;5090541;28;20622;-49
2023/03/11 03:13:57;;;;;;;1999.90;999.90;;;2.00;99.90;;;;;;5090832;28;20221;-51
2023/03/11 03:16:25;;;;;;;1232.63;919.30;;;1.90;99.90;;;;;;5090527;28;20304;-50
2023/03/11 03:18:55;;;;;;;769.63;684.77;;;2.00;99.90;;;;;;5090913;28;20201;-50
2023/03/11 03:21:22;;;;;;;1377.73;822.40;;;2.00;99.90;;;;;;5090174;28;20339;-50
2023/03/11 03:23:50;;;;;;;487.60;441.47;;;2.00;99.90;;;;;;5090969;28;20309;-50
2023/03/11 03:26:18;;;;;;;711.50;635.30;;;2.10;99.90;;;;;;5090923;28;20232;-50
2023/03/11 03:28:46;;;;;;;967.93;575.37;;;2.10;99.90;;;;;;5090712;28;20316;-50
2023/03/11 03:31:14;;;;;;;476.40;428.67;;;2.10;99.90;;;;;;5090317;28;20216;-50
2023/03/11 03:33:42;;;;;;;1201.40;613.60;;;2.20;99.90;;;;;;5090407;28;20601;-50
2023/03/11 03:36:14;;;;;;;571.13;519.80;;;2.20;99.90;;;;;;5090396;28;20218;-50
2023/03/11 03:38:42;;;;;;;478.47;379.97;;;2.20;99.90;;;;;;5090635;28;20205;-50
2023/03/11 03:41:13;;;;;;;1495.17;777.60;;;2.20;99.90;;;;;;5090040;28;20642;-50
2023/03/11 03:43:41;;;;;;;432.17;393.23;;;2.20;99.90;;;;;;5090788;28;20217;-50
2023/03/11 03:46:09;;;;;;;369.90;339.97;;;2.20;99.90;;;;;;5090419;28;20373;-50
2023/03/11 03:48:37;;;;;;;1208.47;599.10;;;2.20;99.90;;;;;;5090122;28;20212;-50
2023/03/11 03:51:06;;;;;;;389.80;352.70;;;2.30;99.90;;;;;;5088537;28;20237;-50
2023/03/11 03:53:37;;;;;;;1129.97;672.73;;;2.30;99.90;;;;;;5090325;28;20287;-50
2023/03/11 03:56:06;;;;;;;455.87;408.93;;;2.20;99.90;;;;;;5090231;28;20766;-51
2023/03/11 03:58:34;;;;;;;478.00;436.93;;;2.20;99.90;;;;;;5089826;28;20295;-51
2023/03/11 04:01:03;;;;;;;382.33;344.10;;;2.20;99.90;;;;;;5090343;28;20231;-50
2023/03/11 04:03:32;;;;;;;565.80;507.00;;;2.20;99.90;;;;;;5090049;28;20197;-50
2023/03/11 04:06:08;;;;;;;486.73;436.03;;;2.30;99.90;;;;;;5090268;28;20208;-50
2023/03/11 04:08:39;;;;;;;667.07;556.07;;;2.20;99.90;;;;;;5089937;28;20736;-49
2023/03/11 04:11:07;;;;;;;320.57;292.80;;;2.30;99.90;;;;;;5090079;28;20641;-50
2023/03/11 04:13:35;;;;;;;1991.03;587.87;;;2.30;99.90;;;;;;5089978;28;20195;-51
2023/03/11 04:16:04;;;;;;;446.80;408.30;;;2.20;99.90;;;;;;5089902;28;20256;-50
2023/03/11 04:18:33;;;;;;;394.20;354.83;;;2.20;99.90;;;;;;5089732;28;20593;-50
2023/03/11 04:21:05;;;;;;;591.23;535.83;;;2.30;99.90;;;;;;5089684;28;20197;-50
2023/03/11 04:23:33;;;;;;;763.30;680.00;;;2.30;99.90;;;;;;5090078;28;20300;-50
2023/03/11 04:26:03;;;;;;;353.37;321.93;;;2.20;99.90;;;;;;5089579;28;20239;-51
2023/03/11 04:28:31;;;;;;;1999.90;803.33;;;2.20;99.90;;;;;;5089273;28;20336;-50
2023/03/11 04:30:59;;;;;;;530.13;472.60;;;2.20;99.90;;;;;;5089488;28;20379;-50
2023/03/11 04:33:27;;;;;;;515.00;398.90;;;2.10;99.90;;;;;;5089008;28;20247;-50
2023/03/11 04:35:55;;;;;;;1404.93;644.97;;;2.10;99.90;;;;;;5089555;28;20212;-50
2023/03/11 04:38:24;;;;;;;683.00;553.13;;;2.00;99.90;;;;;;5089557;28;20210;-50
2023/03/11 04:40:52;;;;;;;1999.90;907.73;;;2.00;99.90;;;;;;5089149;28;20201;-50
2023/03/11 04:43:21;;;;;;;1944.87;676.20;;;2.00;99.90;;;;;;5089472;28;20257;-50
2023/03/11 04:45:50;;;;;;;526.10;475.20;;;2.00;99.90;;;;;;5088908;28;20640;-50
2023/03/11 04:48:18;;;;;;;441.70;399.40;;;2.00;99.90;;;;;;5089524;28;20232;-51
2023/03/11 04:50:46;;;;;;;752.47;522.43;;;2.00;99.90;;;;;;5089152;28;20584;-50
2023/03/11 04:53:14;;;;;;;492.43;351.00;;;2.00;99.90;;;;;;5089162;28;20316;-50
2023/03/11 04:55:42;;;;;;;617.87;534.97;;;2.10;99.90;;;;;;5089471;28;20207;-50
2023/03/11 04:58:10;;;;;;;393.77;343.27;;;2.00;99.90;;;;;;5089022;28;20203;-49
2023/03/11 05:00:40;;;;;;;806.70;520.93;;;2.00;99.90;;;;;;5089267;28;20669;-50
2023/03/11 05:03:08;;;;;;;661.03;361.30;;;1.90;99.90;;;;;;5088297;28;20228;-50
2023/03/11 05:05:36;;;;;;;366.33;297.20;;;1.90;99.90;;;;;;5089307;28;20212;-51
2023/03/11 05:08:04;;;;;;;507.77;440.23;;;1.90;99.90;;;;;;5089293;28;20342;-50
2023/03/11 05:10:32;;;;;;;414.37;284.53;;;1.80;99.90;;;;;;5088994;28;20307;-50
2023/03/11 05:13:00;;;;;;;460.67;405.23;;;1.80;99.90;;;;;;5088494;28;20250;-50
2023/03/11 05:15:30;;;;;;;472.23;422.27;;;1.80;99.90;;;;;;5088997;28;20299;-51
2023/03/11 05:17:59;;;;;;;533.87;370.43;;;1.80;99.90;;;;;;5088869;28;20219;-50
2023/03/11 05:20:27;;;;;;;408.63;253.37;;;1.80;99.90;;;;;;5088760;28;20617;-50
2023/03/11 05:22:55;;;;;;;405.17;362.67;;;1.80;99.90;;;;;;5088316;28;20301;-50
2023/03/11 05:25:23;;;;;;;402.53;364.97;;;1.70;99.90;;;;;;5089050;28;20292;-51
2023/03/11 05:27:51;;;;;;;234.60;213.23;;;1.80;99.90;;;;;;5088607;28;20640;-51
2023/03/11 05:30:19;;;;;;;632.23;440.73;;;1.80;99.90;;;;;;5088661;28;20252;-51
2023/03/11 05:32:47;;;;;;;405.33;366.17;;;1.90;99.90;;;;;;5088241;28;20235;-51
2023/03/11 05:35:17;;;;;;;347.57;314.80;;;1.90;99.90;;;;;;5088538;28;20618;-50
2023/03/11 05:37:48;;;;;;;493.87;442.37;;;1.80;99.90;;;;;;5088816;28;20306;-50
2023/03/11 05:40:17;;;;;;;421.80;325.53;;;1.80;99.90;;;;;;5088457;28;20247;-51
2023/03/11 05:42:45;;;;;;;477.00;428.87;;;1.90;99.90;;;;;;5088053;28;20784;-50
2023/03/11 05:45:13;;;;;;;192.50;171.77;;;1.90;99.90;;;;;;5088053;28;20679;-50
2023/03/11 05:47:42;;;;;;;335.07;240.97;;;1.90;99.90;;;;;;5088230;28;20257;-50
2023/03/11 05:50:11;;;;;;;942.40;348.93;;;2.00;99.90;;;;;;5088545;28;20307;-50
2023/03/11 05:52:40;;;;;;;303.87;234.20;;;2.00;99.90;;;;;;5087630;28;20254;-50
2023/03/11 05:55:11;;;;;;;308.20;257.33;;;2.00;99.90;;;;;;5088335;28;20211;-51
2023/03/11 05:57:39;;;;;;;508.73;328.73;;;2.00;99.90;;;;;;5087864;28;20207;-50
2023/03/11 06:00:11;;;;;;;518.13;389.40;;;2.00;99.90;;;;;;5088059;28;20752;-50
2023/03/11 06:02:39;;;;;;;427.40;382.87;;;2.00;99.90;;;;;;5068308;28;20228;-50
2023/03/11 06:05:09;;;;;;;382.60;303.87;;;2.00;99.90;;;;;;5075540;28;20277;-50
2023/03/11 06:07:41;;;;;;;246.53;204.03;;;1.90;99.90;;;;;;5088795;28;20254;-50
2023/03/11 06:10:11;;;;;;;330.83;249.30;;;1.90;99.90;;;;;;5088432;28;20299;-50
2023/03/11 06:12:39;;;;;;;264.97;238.50;;;1.90;99.90;;;;;;5088006;28;20323;-51
2023/03/11 06:15:08;;;;;;;480.43;388.60;;;2.00;99.90;;;;;;5090981;28;20299;-50
2023/03/11 06:17:36;;;;;;;438.33;361.00;;;1.90;99.90;;;;;;5092260;28;20230;-50
2023/03/11 06:20:06;;;;;;;573.30;383.47;;;1.90;99.90;;;;;;5092445;28;20657;-51
2023/03/11 06:22:34;;;;;;;537.70;484.50;;;1.90;99.90;;;;;;5091987;28;20360;-51
2023/03/11 06:25:03;;;;;;;478.27;420.33;;;1.90;99.90;;;;;;5092373;28;20289;-50
2023/03/11 06:27:31;;;;;;;1288.00;638.87;;;1.90;99.90;;;;;;5091285;28;20792;-51
2023/03/11 06:29:59;;;;;;;390.30;326.67;;;1.90;99.90;;;;;;5092180;28;20307;-51
2023/03/11 06:32:33;;;;;;;311.27;272.37;;;1.90;99.90;;;;;;5091839;28;20323;-50
2023/03/11 06:35:01;;;;;;;413.07;373.67;;;2.00;99.90;;;;;;5091588;28;20253;-50
2023/03/11 06:37:30;;;;;;;156.63;145.10;;;2.00;99.90;;;;;;5092258;28;20306;-50
2023/03/11 06:39:57;;;;;;;612.57;463.57;;;2.10;99.90;;;;;;5091734;28;20235;-51
2023/03/11 06:42:27;;;;;;;465.30;418.07;;;2.10;99.90;;;;;;5092001;28;20230;-50
2023/03/11 06:44:55;;;;;;;320.37;291.73;;;2.10;99.90;;;;;;5092057;28;20312;-50
2023/03/11 06:47:23;;;;;;;554.27;498.93;;;2.20;99.90;;;;;;5091760;28;20572;-50
2023/03/11 06:49:51;;;;;;;376.60;295.43;;;2.30;99.90;;;;;;5092000;28;20265;-50
2023/03/11 06:52:19;;;;;;;309.23;267.40;;;2.50;99.90;;;;;;5091156;28;20335;-50
2023/03/11 06:54:47;;;;;;;598.20;474.33;;;2.80;99.90;;;;;;5091285;28;20250;-50
2023/03/11 06:57:16;;;;;;;200.60;180.33;;;3.10;99.90;;;;;;5091357;28;20634;-50
2023/03/11 06:59:46;;;;;;;1312.43;660.83;;;3.10;99.90;;;;;;5091434;28;20253;-50
2023/03/11 07:02:14;;;;;;;180.97;163.90;;;3.20;99.90;;;;;;5091353;28;20313;-50
2023/03/11 07:04:42;;;;;;;318.90;288.47;;;3.20;99.90;;;;;;5090777;28;20390;-50
2023/03/11 07:07:10;;;;;;;424.43;288.73;;;3.20;99.90;;;;;;5091273;28;20214;-50
2023/03/11 07:09:38;;;;;;;546.57;481.10;;;3.30;99.90;;;;;;5091278;28;20326;-51
2023/03/11 07:12:06;;;;;;;222.70;198.43;;;3.40;99.90;;;;;;5091114;28;20317;-50
2023/03/11 07:14:34;;;;;;;1755.13;822.27;;;3.70;99.90;;;;;;5090252;28;20258;-50
2023/03/11 07:17:03;;;;;;;1661.03;727.17;;;3.90;99.90;;;;;;5090718;28;20289;-51
2023/03/11 07:19:31;;;;;;;1659.33;840.40;;;4.10;99.90;;;;;;5088331;28;20285;-50
2023/03/11 07:21:59;;;;;;;1999.90;922.83;;;4.20;99.90;;;;;;5090277;28;20309;-51
2023/03/11 07:24:27;;;;;;;1511.10;902.03;;;4.20;99.90;;;;;;5090176;28;20209;-51
2023/03/11 07:26:55;;;;;;;1999.90;999.90;;;4.20;99.90;;;;;;5090799;28;20268;-51
2023/03/11 07:29:23;;;;;;;1553.47;931.13;;;4.60;99.90;;;;;;5090339;28;20202;-50
2023/03/11 07:31:51;;;;;;;1999.90;999.90;;;4.40;99.90;;;;;;5090397;28;20326;-50
2023/03/11 07:34:21;;;;;;;1999.90;999.90;;;4.30;99.90;;;;;;5090531;28;20249;-51
2023/03/11 07:36:49;;;;;;;1999.90;999.90;;;4.20;99.90;;;;;;5091146;28;20620;-51
2023/03/11 07:39:18;;;;;;;1999.90;999.90;;;4.00;99.90;;;;;;5090405;28;20301;-50
2023/03/11 07:41:47;;;;;;;1999.90;999.90;;;3.90;99.90;;;;;;5090890;28;20221;-51
2023/03/11 07:44:16;;;;;;;1999.90;999.90;;;3.70;99.90;;;;;;5090447;28;20732;-50
2023/03/11 07:46:44;;;;;;;1999.90;999.90;;;3.60;99.90;;;;;;5090381;28;20205;-50
2023/03/11 07:49:12;;;;;;;1999.90;999.90;;;3.50;99.90;;;;;;5090142;28;20846;-51
2023/03/11 07:51:42;;;;;;;1999.90;999.90;;;3.50;99.90;;;;;;5089304;28;20776;-50
2023/03/11 07:54:11;;;;;;;1999.90;999.90;;;3.50;99.90;;;;;;5090019;28;20265;-51
2023/03/11 07:56:40;;;;;;;1999.90;999.17;;;3.50;99.90;;;;;;5090059;28;20900;-50
2023/03/11 07:59:08;;;;;;;1999.90;999.90;;;3.60;99.90;;;;;;5089844;28;20295;-50
2023/03/11 08:01:39;;;;;;;1999.90;999.90;;;3.90;99.90;;;;;;5089842;28;20227;-51
2023/03/11 08:04:10;;;;;;;1999.90;999.90;;;4.10;99.90;;;;;;5090313;28;20206;-49
2023/03/11 08:06:44;;;;;;;1295.00;834.77;;;4.30;99.90;;;;;;5089800;28;20843;-50
2023/03/11 08:09:12;;;;;;;1999.90;999.90;;;4.40;99.90;;;;;;5089390;28;20701;-50
2023/03/11 08:11:41;;;;;;;1999.90;999.90;;;4.40;99.90;;;;;;5089607;28;20321;-51
2023/03/11 08:14:09;;;;;;;1999.90;999.90;;;4.40;99.90;;;;;;5089827;28;20677;-50
2023/03/11 08:16:39;;;;;;;1999.90;999.90;;;4.20;99.90;;;;;;5089987;28;20304;-50
2023/03/11 08:19:07;;;;;;;1999.90;999.90;;;4.10;99.90;;;;;;5089305;28;20795;-51
2023/03/11 08:21:35;;;;;;;1999.90;999.90;;;3.80;99.90;;;;;;5080114;28;20227;-49
2023/03/11 08:24:05;;;;;;;1999.90;999.90;;;4.10;99.90;;;;;;5074764;28;20205;-51
2023/03/11 08:26:34;;;;;;;1999.90;999.90;;;4.40;99.90;;;;;;5080670;28;20212;-51
2023/03/11 08:29:02;;;;;;;1999.90;999.90;;;4.30;99.90;;;;;;5077888;28;20247;-51
2023/03/11 08:31:32;;;;;;;1999.90;999.90;;;4.40;99.90;;;;;;5077806;28;20753;-51
2023/03/11 08:34:02;;;;;;;1999.90;999.90;;;4.30;99.90;;;;;;5087053;28;20261;-51
2023/03/11 08:36:30;;;;;;;1999.90;999.90;;;4.20;99.90;;;;;;5088332;28;20221;-51
2023/03/11 08:38:59;;;;;;;1999.90;999.90;;;4.20;99.90;;;;;;5088385;28;20240;-51
2023/03/11 08:41:29;;;;;;;1999.90;999.90;;;3.90;99.90;;;;;;5088107;28;20790;-51
2023/03/11 08:43:57;;;;;;;1999.90;999.90;;;3.70;99.90;;;;;;5087174;28;20287;-51
2023/03/11 08:46:27;;;;;;;1920.70;999.90;;;3.80;99.90;;;;;;5088221;28;20240;-51
2023/03/11 08:48:56;;;;;;;1999.90;999.90;;;4.10;99.90;;;;;;5088810;28;20208;-51
2023/03/11 08:51:28;;;;;;;1898.03;999.90;;;4.10;99.90;;;;;;5088791;28;20318;-50
2023/03/11 08:53:56;;;;;;;1999.90;999.90;;;4.30;99.90;;;;;;5087740;28;20790;-51
2023/03/11 08:56:25;;;;;;;1999.90;999.90;;;4.50;99.90;;;;;;5089127;28;20209;-51
2023/03/11 08:58:54;;;;;;;1999.90;999.90;;;4.40;99.90;;;;;;5088953;28;20216;-51
2023/03/11 09:01:22;;;;;;;1999.90;999.90;;;4.40;99.90;;;;;;5088816;28;20251;-50
2023/03/11 09:03:51;;;;;;;1999.90;999.90;;;4.20;99.90;;;;;;5088792;28;20208;-50
2023/03/11 09:06:19;;;;;;;1999.90;999.90;;;4.20;99.90;;;;;;5088990;28;20216;-50
2023/03/11 09:08:49;;;;;;;1999.90;999.90;;;4.20;99.90;;;;;;5088940;28;20271;-51
2023/03/11 09:11:18;;;;;;;1999.90;999.90;;;4.30;99.90;;;;;;5088037;28;20251;-51
2023/03/11 09:13:46;;;;;;;1999.90;999.90;;;4.20;99.90;;;;;;5088413;28;20321;-51
2023/03/11 09:16:17;;;;;;;1999.90;999.90;;;4.40;99.90;;;;;;5088365;28;20243;-51
2023/03/11 09:18:45;;;;;;;1999.90;999.90;;;4.50;99.90;;;;;;5088033;28;20357;-52
2023/03/11 09:21:13;;;;;;;1999.90;999.90;;;4.50;99.90;;;;;;5088403;28;20273;-51
2023/03/11 09:23:42;;;;;;;1999.90;999.90;;;4.60;99.90;;;;;;5087552;28;20260;-51
2023/03/11 09:26:12;;;;;;;1999.90;999.90;;;4.40;99.90;;;;;;5088176;28;20239;-51
2023/03/11 09:28:41;;;;;;;1114.43;971.83;;;4.10;99.90;;;;;;5087768;28;20653;-51
2023/03/11 09:31:09;;;;;;;1999.90;999.90;;;3.90;99.90;;;;;;5088011;28;20291;-51
2023/03/11 09:33:40;;;;;;;1920.13;999.90;;;4.00;99.90;;;;;;5087921;28;20221;-51
2023/03/11 09:36:12;;;;;;;1999.90;999.90;;;4.10;99.90;;;;;;5088309;28;20215;-51
2023/03/11 09:38:40;;;;;;;1349.37;968.97;;;4.10;99.90;;;;;;5087508;28;20250;-51
2023/03/11 09:41:19;;;;;;;1753.87;999.90;;;4.30;99.90;;;;;;5088176;28;20226;-52
2023/03/11 09:43:56;;;;;;;1999.90;999.90;;;4.60;99.90;;;;;;5087290;28;20204;-51
2023/03/11 09:46:59;;;;;;;1999.90;999.90;;;4.90;99.90;;;;;;5088181;28;20641;-52
2023/03/11 09:49:37;;;;;;;1999.90;999.90;;;4.90;99.90;;;;;;5087059;28;20290;-51
2023/03/11 09:52:10;;;;;;;1999.90;999.90;;;4.70;99.90;;;;;;5087393;28;20221;-51
2023/03/11 09:54:42;;;;;;;1988.93;999.90;;;4.70;99.90;;;;;;5088282;28;20312;-52
2023/03/11 09:57:15;;;;;;;1999.90;999.90;;;4.90;99.90;;;;;;5088705;28;20195;-52
2023/03/11 09:59:44;;;;;;;1888.23;999.90;;;5.10;99.90;;;;;;5088679;28;20207;-51
2023/03/11 10:02:16;;;;;;;1999.90;999.90;;;5.20;99.90;;;;;;5088331;28;20323;-52
2023/03/11 10:04:53;;;;;;;1999.90;999.90;;;5.00;99.90;;;;;;5067958;28;20235;-51
2023/03/11 10:07:26;;;;;;;1999.90;999.90;;;4.80;99.90;;;;;;5075915;28;20238;-51
2023/03/11 10:09:56;;;;;;;1003.07;903.33;;;4.50;99.90;;;;;;5088121;28;20306;-52
2023/03/11 10:12:35;;;;;;;1999.90;999.90;;;4.20;99.90;;;;;;5087617;28;20351;-50
2023/03/11 10:15:19;;;;;;;1028.90;857.20;;;4.10;99.90;;;;;;5087873;28;20988;-50
2023/03/11 10:18:05;;;;;;;1531.70;999.90;;;4.30;99.90;;;;;;5088261;28;20397;-52
2023/03/11 10:20:42;;;;;;;1999.90;999.90;;;4.50;99.90;;;;;;5087886;28;20256;-52
2023/03/11 10:23:21;;;;;;;1999.90;999.90;;;4.80;99.90;;;;;;5087804;28;20331;-51
2023/03/11 10:25:58;;;;;;;1841.40;999.90;;;5.00;99.90;;;;;;5067554;28;20696;-52
2023/03/11 10:28:31;;;;;;;1999.90;999.90;;;5.40;99.90;;;;;;5077957;28;20690;-50
2023/03/11 10:31:06;;;;;;;1999.90;999.90;;;5.70;99.90;;;;;;5087572;28;20220;-52
2023/03/11 10:33:39;;;;;;;1999.90;999.90;;;5.80;99.90;;;;;;5087080;28;20234;-51
2023/03/11 10:36:17;;;;;;;1999.90;999.90;;;5.70;99.90;;;;;;5087270;28;20675;-52
2023/03/11 10:38:48;;;;;;;1999.90;999.90;;;5.40;99.90;;;;;;5068286;28;20707;-51
2023/03/11 10:41:22;;;;;;;1999.90;999.90;;;5.10;99.90;;;;;;5067969;28;20648;-52
2023/03/11 10:43:55;;;;;;;1867.47;931.33;;;4.70;99.90;;;;;;5066824;28;20608;-51
2023/03/11 10:46:25;;;;;;;990.13;883.20;;;4.80;99.90;;;;;;5087753;28;20296;-51
2023/03/11 10:48:53;;;;;;;1999.90;999.90;;;4.90;99.90;;;;;;5087141;28;20237;-52
2023/03/11 10:51:25;;;;;;;1553.40;999.90;;;5.10;99.90;;;;;;5070080;28;20694;-50
2023/03/11 10:53:55;;;;;;;1333.97;966.07;;;5.00;99.90;;;;;;5085408;28;20631;-52
2023/03/11 10:56:29;;;;;;;1999.90;999.90;;;4.90;99.90;;;;;;5087571;28;20232;-52
2023/03/11 10:58:58;;;;;;;1999.90;999.90;;;4.70;99.90;;;;;;5087322;28;20215;-52
2023/03/11 11:01:27;;;;;;;1962.70;999.90;;;4.90;99.90;;;;;;5089771;28;20202;-52
2023/03/11 11:03:58;;;;;;;1992.10;999.90;;;4.90;99.90;;;;;;5087474;28;20238;-52
2023/03/11 11:06:29;;;;;;;1999.90;999.90;;;5.10;99.90;;;;;;5085067;28;20296;-52
2023/03/11 11:09:14;;;;;;;1999.90;999.90;;;5.10;99.90;;;;;;5091065;28;20208;-52
2023/03/11 11:11:43;;;;;;;1999.90;999.90;;;5.20;99.90;;;;;;5091130;28;20270;-51
2023/03/11 11:14:11;;;;;;;1999.90;999.90;;;5.40;99.90;;;;;;5090458;28;20244;-52
2023/03/11 11:16:40;;;;;;;1999.90;999.90;;;5.50;99.90;;;;;;5091243;28;20194;-52
2023/03/11 11:19:12;;;;;;;1999.90;999.90;;;5.30;99.90;;;;;;5090631;28;20843;-52
2023/03/11 11:21:45;;;;;;;1999.90;999.90;;;5.40;99.90;;;;;;5091335;28;20285;-52
2023/03/11 11:24:20;;;;;;;1999.90;999.90;;;5.50;99.90;;;;;;5090952;28;20779;-51
2023/03/11 11:27:03;;;;;;;1999.90;999.90;;;5.60;99.90;;;;;;5090320;28;20736;-51
2023/03/11 11:29:33;;;;;;;1999.90;999.90;;;5.80;99.90;;;;;;5090918;28;20298;-52
2023/03/11 11:32:23;;;;;;;1999.90;999.90;;;6.00;99.90;;;;;;5090657;28;20266;-52
2023/03/11 11:34:58;;;;;;;1999.90;999.90;;;6.00;99.90;;;;;;5089818;28;20719;-52
2023/03/11 11:37:31;;;;;;;1999.90;999.90;;;6.10;99.90;;;;;;5087506;28;20701;-52
2023/03/11 11:40:08;;;;;;;1999.90;999.90;;;6.10;99.90;;;;;;5090508;28;20291;-52
2023/03/11 11:42:39;;;;;;;1738.23;999.90;;;5.90;99.90;;;;;;5089221;28;20249;-52
2023/03/11 11:45:14;;;;;;;1999.90;999.90;;;5.80;99.90;;;;;;5090472;28;20286;-52
2023/03/11 11:47:47;;;;;;;1997.77;999.90;;;6.00;99.90;;;;;;5091023;28;20204;-52
2023/03/11 11:50:20;;;;;;;1999.90;999.90;;;5.80;99.90;;;;;;5090320;28;20719;-51
2023/03/11 11:52:54;;;;;;;1999.90;999.90;;;5.80;99.90;;;;;;5090237;28;20322;-51
2023/03/11 11:55:25;;;;;;;983.03;875.27;;;5.60;99.90;;;;;;5088149;28;20315;-52
2023/03/11 11:57:53;;;;;;;1433.07;999.90;;;5.50;99.90;;;;;;5090259;28;20215;-52
2023/03/11 12:00:27;;;;;;;1227.07;945.63;;;5.50;99.90;;;;;;5089583;28;20304;-52
2023/03/11 12:03:19;;;;;;;1999.90;999.90;;;5.30;99.90;;;;;;5089498;28;20270;-52
2023/03/11 12:05:54;;;;;;;1180.17;947.33;;;5.40;99.90;;;;;;5089623;28;20212;-52
2023/03/11 12:08:33;;;;;;;1993.43;999.90;;;5.60;99.90;;;;;;5089485;28;20213;-52
2023/03/11 12:11:06;;;;;;;1999.90;999.90;;;5.60;99.90;;;;;;5089021;28;20293;-52
2023/03/11 12:14:03;;;;;;;1899.63;999.90;;;5.70;99.90;;;;;;5088655;28;20323;-51
2023/03/11 12:16:41;;;;;;;1999.90;999.90;;;5.80;99.90;;;;;;5088233;28;20308;-52
2023/03/11 12:19:24;;;;;;;1683.63;999.90;;;5.70;99.90;;;;;;5089233;28;20639;-52
2023/03/11 12:22:23;;;;;;;1999.90;999.90;;;5.60;99.90;;;;;;5089180;28;20230;-52
2023/03/11 12:25:20;;;;;;;1999.90;999.90;;;5.40;99.90;;;;;;5086987;28;20199;-52
2023/03/11 12:27:54;;;;;;;1687.30;999.90;;;5.40;99.90;;;;;;5088050;28;20216;-53